Huvudsida
METAR-TAF:

METAR-TAF

Flygplatser :

Katarinaklostret, Egypten

latitud: 28-41-07N, longitud: 034-03-45E, höjd: 1331 m

Aktuellt väderrapport

Denna rapport gjordes för 1 timme och 22 minuter sedan, klockan 22:00 UTC
Stilla vind
Temperatur 11°C
Fuktighet 87%
Tryck 1023 hPa
Sikt 10 km eller mer
Inga moln under 1 500 m eller inga cumulonimbus

METAR: HESC 152200Z 00000KT CAVOK 11/09 Q1023 NOSIG

Tid: 01:22 (23:22 UTC)

Väderprognos

Denna rapport gjordes för 6 timmar och 22 minuter sedan, klockan 17:00 UTC
Prognos gäller från 15 kl. 18 UTC till 16 kl. 24 UTC
Vind 12 kt från nordväst
Sikt 10 km eller mer
Spridda moln på en höjd av 2000 ft

TAF: HESC 151700Z 1518/1624 32012KT 9999 SCT020

Aktuella väderrapporter och prognoser från 4000 flygplatser (METAR- och TAF-rapporter).

De tillgängliga stationerna syns som gula och röda prickar på kartan.

För musen över prickarna för att se namnen på stationerna.

Klicka sedan för att få väderrapporter och prognoser.

För att ändra kartan: Klicka på de gröna knapparna med ett svart kors på för att zooma in; den gröna knappen med ett streck på för att zooma ut; eller på de gröna pilarna för angränsande kartor.


METAR-TAF: